Time;durP1;ratioP1;P1;durP2;ratioP2;P2;SDS_P1;SDS_P2;PMS_P1;PMS_P2;Temp;Humidity;BMP_temperature;BMP_pressure;BME280_temperature;BME280_humidity;BME280_pressure;Samples;Min_cycle;Max_cycle;Signal;HPM_P1;HPM_P2
2021/05/22 00:02:20;;;;;;;1999.90;999.90;;;11.40;99.90;;;;;;5040488;28;20189;-87
2021/05/22 00:04:45;;;;;;;1999.90;999.90;;;11.50;99.90;;;;;;5041213;28;20173;-86
2021/05/22 00:07:11;;;;;;;1999.90;999.90;;;11.50;99.90;;;;;;5040604;28;20161;-86
2021/05/22 00:09:44;;;;;;;1999.90;999.90;;;11.50;99.90;;;;;;5040808;28;20313;-86
2021/05/22 00:12:10;;;;;;;1999.90;999.90;;;11.50;99.90;;;;;;5041515;28;20149;-86
2021/05/22 00:14:41;;;;;;;1999.90;999.90;;;11.50;99.90;;;;;;5041069;28;20169;-86
2021/05/22 00:17:10;;;;;;;1999.90;999.90;;;11.50;99.90;;;;;;5041115;28;20162;-86
2021/05/22 00:19:36;;;;;;;1999.90;999.90;;;11.50;99.90;;;;;;5041763;28;20176;-85
2021/05/22 00:22:01;;;;;;;1999.90;999.90;;;11.60;99.90;;;;;;5040135;28;20193;-86
2021/05/22 00:24:27;;;;;;;1999.90;999.90;;;11.60;99.90;;;;;;5039974;28;20411;-86
2021/05/22 00:26:53;;;;;;;1999.90;999.90;;;11.60;99.90;;;;;;5039895;28;20517;-86
2021/05/22 00:29:20;;;;;;;1999.90;999.90;;;11.60;99.90;;;;;;5041024;28;20556;-86
2021/05/22 00:31:49;;;;;;;1999.90;999.90;;;11.70;99.90;;;;;;5040558;28;20237;-86
2021/05/22 00:34:14;;;;;;;1999.90;999.90;;;11.60;99.90;;;;;;5040153;28;20235;-86
2021/05/22 00:36:40;;;;;;;1999.90;999.90;;;11.50;99.90;;;;;;5040327;28;20624;-86
2021/05/22 00:39:07;;;;;;;1999.90;999.90;;;11.50;99.90;;;;;;5039379;28;20189;-86
2021/05/22 00:41:33;;;;;;;1999.90;999.90;;;11.40;99.90;;;;;;5040636;28;20189;-85
2021/05/22 00:43:59;;;;;;;1999.90;999.90;;;11.40;99.90;;;;;;5038827;28;20595;-85
2021/05/22 00:46:25;;;;;;;1999.90;999.90;;;11.40;99.90;;;;;;5040519;28;20404;-86
2021/05/22 00:48:50;;;;;;;1999.90;999.90;;;11.40;99.90;;;;;;5039672;28;20423;-86
2021/05/22 00:51:16;;;;;;;1999.90;999.90;;;11.40;99.90;;;;;;5039823;28;20404;-85
2021/05/22 00:53:42;;;;;;;1999.90;999.90;;;11.40;99.90;;;;;;5039527;28;20704;-86
2021/05/22 00:56:08;;;;;;;1999.90;999.90;;;11.40;99.90;;;;;;5039715;28;20477;-86
2021/05/22 00:58:36;;;;;;;1999.90;999.90;;;11.30;99.90;;;;;;5037680;28;20184;-85
2021/05/22 01:01:07;;;;;;;1999.90;999.90;;;11.30;99.90;;;;;;5039132;28;20594;-86
2021/05/22 01:03:40;;;;;;;1999.90;999.90;;;11.20;99.90;;;;;;5039004;28;20165;-86
2021/05/22 01:06:15;;;;;;;1999.90;999.90;;;11.10;99.90;;;;;;5040378;28;20172;-86
2021/05/22 01:08:47;;;;;;;1999.90;999.90;;;11.00;99.90;;;;;;5037734;28;20196;-85
2021/05/22 01:11:33;;;;;;;1999.90;999.90;;;10.90;99.90;;;;;;5038026;28;20165;-86
2021/05/22 01:14:23;;;;;;;1999.90;999.90;;;10.90;99.90;;;;;;5039084;28;20165;-85
2021/05/22 01:16:53;;;;;;;1999.90;999.90;;;10.90;99.90;;;;;;5037735;28;20180;-85
2021/05/22 01:19:43;;;;;;;1999.90;999.90;;;10.90;99.90;;;;;;5037827;28;20210;-86
2021/05/22 01:22:11;;;;;;;1999.90;999.90;;;10.90;99.90;;;;;;5038328;28;20197;-86
2021/05/22 01:24:54;;;;;;;1999.90;999.90;;;10.90;99.90;;;;;;5039131;28;20180;-86
2021/05/22 01:27:23;;;;;;;1999.90;999.90;;;10.90;99.90;;;;;;5039049;28;20201;-86
2021/05/22 01:29:49;;;;;;;1999.90;999.90;;;10.80;99.90;;;;;;5038462;28;20672;-86
2021/05/22 01:32:16;;;;;;;1999.90;999.90;;;10.80;99.90;;;;;;5037504;28;20181;-86
2021/05/22 01:34:42;;;;;;;1999.90;999.90;;;10.80;99.90;;;;;;5037299;28;20182;-86
2021/05/22 01:37:08;;;;;;;1999.90;999.90;;;10.70;99.90;;;;;;5038933;28;20240;-86
2021/05/22 01:39:33;;;;;;;1999.90;999.90;;;10.80;99.90;;;;;;5037680;28;20416;-86
2021/05/22 01:42:00;;;;;;;1999.90;999.90;;;10.90;99.90;;;;;;5037985;28;20212;-85
2021/05/22 01:44:32;;;;;;;1999.90;999.90;;;10.90;99.90;;;;;;5038081;28;20187;-86
2021/05/22 01:46:59;;;;;;;1999.90;999.90;;;10.90;99.90;;;;;;5038088;28;20272;-85
2021/05/22 01:49:27;;;;;;;1999.90;999.90;;;10.90;99.90;;;;;;5037071;28;20185;-86
2021/05/22 01:51:56;;;;;;;1999.90;999.90;;;10.80;99.90;;;;;;5036295;28;20173;-86
2021/05/22 01:54:23;;;;;;;1999.90;999.90;;;10.80;99.90;;;;;;5038185;28;20163;-86
2021/05/22 01:56:50;;;;;;;1999.90;999.90;;;10.90;99.90;;;;;;5037464;28;20256;-86
2021/05/22 01:59:19;;;;;;;1999.90;999.90;;;10.90;99.90;;;;;;5037904;28;20191;-85
2021/05/22 02:01:51;;;;;;;1999.90;999.90;;;10.80;99.90;;;;;;5036495;28;20190;-85
2021/05/22 02:04:24;;;;;;;1999.90;999.90;;;10.70;99.90;;;;;;5037265;28;20593;-87
2021/05/22 02:06:52;;;;;;;1999.90;999.90;;;10.60;99.90;;;;;;5036997;28;20150;-85
2021/05/22 02:09:19;;;;;;;1999.90;999.90;;;10.60;99.90;;;;;;5037495;28;20173;-86
2021/05/22 02:11:53;;;;;;;1999.90;999.90;;;10.60;99.90;;;;;;5036957;28;20178;-85
2021/05/22 02:14:34;;;;;;;1999.90;999.90;;;10.50;99.90;;;;;;5035823;28;20178;-85
2021/05/22 02:17:06;;;;;;;1999.90;999.90;;;10.50;99.90;;;;;;5036396;28;20591;-85
2021/05/22 02:19:35;;;;;;;1999.90;999.90;;;10.50;99.90;;;;;;5037343;28;20243;-85
2021/05/22 02:22:16;;;;;;;1999.90;999.90;;;10.50;99.90;;;;;;5035886;28;20699;-85
2021/05/22 02:24:42;;;;;;;1999.90;999.90;;;10.50;99.90;;;;;;5036666;28;20169;-86
2021/05/22 02:27:10;;;;;;;1999.90;999.90;;;10.50;99.90;;;;;;5037468;28;20376;-86
2021/05/22 02:29:38;;;;;;;1999.90;999.90;;;10.40;99.90;;;;;;5037174;28;20204;-86
2021/05/22 02:32:05;;;;;;;1999.90;999.90;;;10.30;99.90;;;;;;5036578;28;20690;-86
2021/05/22 02:34:44;;;;;;;1999.90;999.90;;;10.40;99.90;;;;;;5037022;28;20192;-85
2021/05/22 02:37:11;;;;;;;1999.90;999.90;;;10.40;99.90;;;;;;5037671;28;20202;-85
2021/05/22 02:39:42;;;;;;;1999.90;999.90;;;10.40;99.90;;;;;;5036128;28;20192;-85
2021/05/22 02:42:12;;;;;;;1999.90;999.90;;;10.40;99.90;;;;;;5037417;28;20588;-85
2021/05/22 02:44:38;;;;;;;1999.90;999.90;;;10.50;99.90;;;;;;5038042;28;20153;-86
2021/05/22 02:47:09;;;;;;;1999.90;999.90;;;10.50;99.90;;;;;;5036707;28;20165;-86
2021/05/22 02:49:41;;;;;;;1999.90;999.90;;;10.50;99.90;;;;;;5037460;28;20181;-86
2021/05/22 02:52:09;;;;;;;1999.90;999.90;;;10.40;99.90;;;;;;5035648;28;20514;-85
2021/05/22 02:54:39;;;;;;;1999.90;999.90;;;10.30;99.90;;;;;;5037622;28;20530;-86
2021/05/22 02:57:07;;;;;;;1999.90;999.90;;;10.30;99.90;;;;;;5036577;28;20165;-86
2021/05/22 02:59:33;;;;;;;1999.90;999.90;;;10.30;99.90;;;;;;5036976;28;20181;-85
2021/05/22 03:02:01;;;;;;;1999.90;999.90;;;10.30;99.90;;;;;;5037644;28;20193;-86
2021/05/22 03:04:28;;;;;;;1999.90;999.90;;;10.40;99.90;;;;;;5036272;28;20169;-86
2021/05/22 03:06:54;;;;;;;1999.90;999.90;;;10.30;99.90;;;;;;5036134;28;20176;-85
2021/05/22 03:09:19;;;;;;;1999.90;999.90;;;10.40;99.90;;;;;;5037232;28;20657;-86
2021/05/22 03:11:45;;;;;;;1999.90;999.90;;;10.40;99.90;;;;;;5037474;28;20223;-85
2021/05/22 03:14:11;;;;;;;1999.90;999.90;;;10.30;99.90;;;;;;5037746;28;20651;-85
2021/05/22 03:16:37;;;;;;;1999.90;999.90;;;10.30;99.90;;;;;;5037756;28;20567;-85
2021/05/22 03:19:05;;;;;;;1999.90;999.90;;;10.20;99.90;;;;;;5037332;28;20769;-86
2021/05/22 03:21:31;;;;;;;1999.90;999.90;;;10.30;99.90;;;;;;5037513;28;20443;-85
2021/05/22 03:23:57;;;;;;;1999.90;999.90;;;10.30;99.90;;;;;;5036510;28;20172;-87
2021/05/22 03:26:27;;;;;;;1999.90;999.90;;;10.40;99.90;;;;;;5039156;28;20699;-85
2021/05/22 03:28:58;;;;;;;1999.90;999.90;;;10.40;99.90;;;;;;5040571;28;20176;-85
2021/05/22 03:31:23;;;;;;;1999.90;999.90;;;10.40;99.90;;;;;;5040422;28;20203;-85
2021/05/22 03:33:49;;;;;;;1999.90;999.90;;;10.40;99.90;;;;;;5040612;28;20177;-86
2021/05/22 03:36:18;;;;;;;1999.90;999.90;;;10.40;99.90;;;;;;5039800;28;20256;-86
2021/05/22 03:38:44;;;;;;;1999.90;999.90;;;10.40;99.90;;;;;;5040844;28;20188;-86
2021/05/22 03:41:10;;;;;;;1999.90;999.90;;;10.40;99.90;;;;;;5039600;28;20193;-86
2021/05/22 03:43:36;;;;;;;1999.90;999.90;;;10.40;99.90;;;;;;5040723;28;20173;-86
2021/05/22 03:46:17;;;;;;;;;;;;;;;;;;;;;
2021/05/22 03:48:43;;;;;;;1999.90;999.90;;;10.30;99.90;;;;;;5040701;28;20508;-86
2021/05/22 03:51:09;;;;;;;1999.90;999.90;;;10.40;99.90;;;;;;5039321;28;20223;-85
2021/05/22 03:53:35;;;;;;;1999.90;999.90;;;10.40;99.90;;;;;;5039790;28;20268;-85
2021/05/22 03:56:00;;;;;;;1999.90;999.90;;;10.30;99.90;;;;;;5040775;28;20399;-85
2021/05/22 03:58:26;;;;;;;1999.90;999.90;;;10.30;99.90;;;;;;5038402;28;20214;-86
2021/05/22 04:00:52;;;;;;;1999.90;999.90;;;10.40;99.90;;;;;;5039685;28;20189;-85
2021/05/22 04:03:18;;;;;;;1999.90;999.90;;;10.40;99.90;;;;;;5039299;28;20165;-87
2021/05/22 04:05:47;;;;;;;1999.90;999.90;;;10.50;99.90;;;;;;5040663;28;20168;-86
2021/05/22 04:08:13;;;;;;;1999.90;999.90;;;10.50;99.90;;;;;;5039131;28;20416;-85
2021/05/22 04:10:41;;;;;;;1999.90;999.90;;;10.60;99.90;;;;;;5038521;28;20223;-86
2021/05/22 04:13:07;;;;;;;1999.90;999.90;;;10.60;99.90;;;;;;5038964;28;20169;-86
2021/05/22 04:15:33;;;;;;;1999.90;999.90;;;10.70;99.90;;;;;;5037836;28;20231;-86
2021/05/22 04:17:59;;;;;;;1999.90;999.90;;;10.70;99.90;;;;;;5038021;28;20280;-85
2021/05/22 04:20:28;;;;;;;1999.90;999.90;;;10.80;99.90;;;;;;5038067;28;20581;-86
2021/05/22 04:22:54;;;;;;;1999.90;999.90;;;10.70;99.90;;;;;;5039608;28;20162;-86
2021/05/22 04:25:19;;;;;;;1999.90;999.90;;;10.70;99.90;;;;;;5038842;28;20172;-86
2021/05/22 04:27:45;;;;;;;1999.90;999.90;;;10.70;99.90;;;;;;5038789;28;20185;-86
2021/05/22 04:30:12;;;;;;;1999.90;999.90;;;10.80;99.90;;;;;;5039938;28;20403;-86
2021/05/22 04:32:40;;;;;;;1999.90;999.90;;;10.80;99.90;;;;;;5038951;28;20415;-87
2021/05/22 04:35:09;;;;;;;1999.90;999.90;;;10.80;99.90;;;;;;5039260;28;20268;-86
2021/05/22 04:37:35;;;;;;;1999.90;999.90;;;10.80;99.90;;;;;;5040321;28;20193;-86
2021/05/22 04:40:01;;;;;;;1999.90;999.90;;;10.80;99.90;;;;;;5040270;28;20521;-86
2021/05/22 04:42:27;;;;;;;1999.90;999.90;;;10.80;99.90;;;;;;5036599;28;20454;-86
2021/05/22 04:44:53;;;;;;;1999.90;999.90;;;10.90;99.90;;;;;;5039219;28;20404;-87
2021/05/22 04:47:22;;;;;;;1999.90;999.90;;;10.90;99.90;;;;;;5039384;28;20189;-86
2021/05/22 04:49:48;;;;;;;1999.90;999.90;;;11.00;99.90;;;;;;5039696;28;20200;-87
2021/05/22 04:52:19;;;;;;;1999.90;999.90;;;11.00;99.90;;;;;;5041368;28;20177;-85
2021/05/22 04:54:51;;;;;;;1999.90;999.90;;;11.10;99.90;;;;;;5041204;28;20412;-85
2021/05/22 04:57:22;;;;;;;1999.90;999.90;;;11.10;99.90;;;;;;5021188;28;20176;-86
2021/05/22 04:59:48;;;;;;;1999.90;999.90;;;11.10;99.90;;;;;;5040461;28;20184;-86
2021/05/22 05:02:14;;;;;;;1999.90;999.90;;;11.20;99.90;;;;;;5039505;28;20190;-85
2021/05/22 05:04:42;;;;;;;1999.90;999.90;;;11.20;99.90;;;;;;5042041;28;20169;-84
2021/05/22 05:07:09;;;;;;;1999.90;999.90;;;11.20;99.90;;;;;;5043066;28;20170;-85
2021/05/22 05:09:36;;;;;;;1999.90;999.90;;;11.20;99.90;;;;;;5042651;28;20244;-85
2021/05/22 05:12:05;;;;;;;1999.90;999.90;;;11.20;99.90;;;;;;5042096;28;20573;-85
2021/05/22 05:14:37;;;;;;;1999.90;999.90;;;11.20;99.90;;;;;;5040683;28;20172;-86
2021/05/22 05:17:03;;;;;;;1999.90;999.90;;;11.30;99.90;;;;;;5041662;28;20165;-87
2021/05/22 05:19:30;;;;;;;1999.90;999.90;;;11.30;99.90;;;;;;5039400;28;20560;-86
2021/05/22 05:21:56;;;;;;;1999.90;999.90;;;11.30;99.90;;;;;;5040501;28;20296;-86
2021/05/22 05:24:25;;;;;;;1999.90;999.90;;;11.40;99.90;;;;;;5041314;28;20201;-86
2021/05/22 05:26:58;;;;;;;1999.90;999.90;;;11.40;99.90;;;;;;5041695;28;20392;-85
2021/05/22 05:29:24;;;;;;;1999.90;999.90;;;11.40;99.90;;;;;;5040528;28;20181;-86
2021/05/22 05:31:50;;;;;;;1999.90;999.90;;;11.40;99.90;;;;;;5041398;28;20177;-85
2021/05/22 05:34:15;;;;;;;1999.90;999.90;;;11.50;99.90;;;;;;5108923;22;20221;-83
2021/05/22 05:36:41;;;;;;;1999.90;999.90;;;11.60;99.90;;;;;;5036994;28;20192;-84
2021/05/22 05:39:07;;;;;;;1999.90;999.90;;;11.60;99.90;;;;;;5038012;28;20180;-83
2021/05/22 05:41:33;;;;;;;1999.90;999.90;;;11.70;99.90;;;;;;5036750;28;20664;-83
2021/05/22 05:43:58;;;;;;;1999.90;999.90;;;11.80;99.90;;;;;;5038059;28;20172;-83
2021/05/22 05:46:24;;;;;;;1999.90;999.90;;;11.90;99.90;;;;;;5037171;28;20400;-84
2021/05/22 05:48:50;;;;;;;1999.90;999.90;;;11.90;99.90;;;;;;5038138;28;20242;-83
2021/05/22 05:51:16;;;;;;;1999.90;999.90;;;11.80;99.90;;;;;;5037302;28;20195;-83
2021/05/22 05:53:41;;;;;;;1999.90;999.90;;;11.70;99.90;;;;;;5038396;28;20165;-83
2021/05/22 05:56:07;;;;;;;1999.90;999.90;;;11.80;99.90;;;;;;5037842;28;20169;-83
2021/05/22 05:58:33;;;;;;;1999.90;999.90;;;11.80;99.90;;;;;;5036939;28;20276;-83
2021/05/22 06:00:59;;;;;;;1999.90;999.90;;;11.90;99.90;;;;;;5038087;28;20288;-83
2021/05/22 06:03:30;;;;;;;1999.90;999.90;;;12.00;99.90;;;;;;5037139;28;20443;-83
2021/05/22 06:05:56;;;;;;;1999.90;999.90;;;12.20;99.90;;;;;;5038428;28;20141;-83
2021/05/22 06:08:21;;;;;;;1999.90;999.90;;;12.20;99.90;;;;;;5037880;28;20264;-83
2021/05/22 06:10:49;;;;;;;1999.90;999.90;;;12.20;99.90;;;;;;5039264;28;20404;-83
2021/05/22 06:13:32;;;;;;;1999.90;999.90;;;12.30;99.90;;;;;;5039437;28;20529;-84
2021/05/22 06:18:35;;;;;;;1999.90;999.90;;;12.30;99.90;;;;;;5038584;28;20200;-83
2021/05/22 06:21:02;;;;;;;1999.90;999.90;;;12.40;99.90;;;;;;5037516;28;20627;-83
2021/05/22 06:23:29;;;;;;;1999.90;999.90;;;12.60;99.90;;;;;;5037417;28;20280;-83
2021/05/22 06:25:55;;;;;;;1999.90;999.90;;;12.60;99.90;;;;;;5037685;28;20189;-83
2021/05/22 06:28:22;;;;;;;1999.90;999.90;;;12.70;99.90;;;;;;5038532;28;20274;-83
2021/05/22 06:30:48;;;;;;;1999.90;999.90;;;12.70;99.90;;;;;;5037303;28;20161;-83
2021/05/22 06:33:14;;;;;;;1999.90;999.90;;;12.80;99.90;;;;;;5036457;28;20180;-84
2021/05/22 06:35:41;;;;;;;1999.90;999.90;;;12.90;99.90;;;;;;5035028;28;20652;-83
2021/05/22 06:38:06;;;;;;;1999.90;999.90;;;13.00;99.90;;;;;;5036002;28;20550;-83
2021/05/22 06:40:32;;;;;;;1999.90;999.90;;;13.10;99.90;;;;;;5036678;28;20199;-83
2021/05/22 06:42:58;;;;;;;1999.90;999.90;;;13.10;99.90;;;;;;5037163;28;20624;-83
2021/05/22 06:45:25;;;;;;;1999.90;999.90;;;13.10;99.90;;;;;;5036353;28;20216;-84
2021/05/22 06:47:52;;;;;;;1999.90;999.90;;;13.20;99.90;;;;;;5037547;28;20192;-83
2021/05/22 06:50:18;;;;;;;1999.90;999.90;;;13.30;99.90;;;;;;5039017;28;20157;-83
2021/05/22 06:52:43;;;;;;;1999.90;999.90;;;13.30;99.90;;;;;;5038348;28;20646;-82
2021/05/22 06:55:10;;;;;;;1999.90;999.90;;;13.40;99.90;;;;;;5037149;28;20418;-82
2021/05/22 06:57:35;;;;;;;1999.90;999.90;;;13.40;99.90;;;;;;5037065;28;20447;-83
2021/05/22 07:00:01;;;;;;;1999.90;999.90;;;13.30;99.90;;;;;;5035757;28;20537;-83
2021/05/22 07:02:27;;;;;;;1999.90;999.90;;;13.20;99.90;;;;;;5041514;28;20216;-83
2021/05/22 07:04:52;;;;;;;1999.90;999.90;;;13.10;99.90;;;;;;5042267;28;20440;-83
2021/05/22 07:07:18;;;;;;;1999.90;999.90;;;13.20;99.90;;;;;;5039248;28;20168;-84
2021/05/22 07:09:44;;;;;;;1999.90;999.90;;;13.00;99.90;;;;;;5041644;28;20632;-83
2021/05/22 07:12:10;;;;;;;1999.90;999.90;;;12.90;99.90;;;;;;5041879;28;20165;-84
2021/05/22 07:14:36;;;;;;;1999.90;999.90;;;12.90;99.90;;;;;;5042513;28;20587;-82
2021/05/22 07:17:02;;;;;;;1999.90;999.90;;;12.80;99.90;;;;;;5041873;28;20169;-84
2021/05/22 07:19:28;;;;;;;1999.90;999.90;;;12.70;99.90;;;;;;5040328;28;20189;-84
2021/05/22 07:21:55;;;;;;;1999.90;999.90;;;12.50;99.90;;;;;;5040692;28;20660;-83
2021/05/22 07:24:21;;;;;;;1999.90;999.90;;;12.40;99.90;;;;;;5042311;28;20200;-82
2021/05/22 07:26:48;;;;;;;1999.90;999.90;;;12.40;99.90;;;;;;5041751;28;20225;-83
2021/05/22 07:29:15;;;;;;;1999.90;999.90;;;12.40;99.90;;;;;;5041975;28;20247;-83
2021/05/22 07:31:42;;;;;;;1999.90;999.90;;;12.40;99.90;;;;;;5042286;28;20177;-83
2021/05/22 07:34:09;;;;;;;1999.90;999.90;;;12.40;99.90;;;;;;5043932;28;20426;-82
2021/05/22 07:36:39;;;;;;;1999.90;999.90;;;12.60;99.90;;;;;;5042732;28;20640;-82
2021/05/22 07:39:09;;;;;;;1999.90;999.90;;;12.60;99.90;;;;;;5043048;28;20189;-82
2021/05/22 07:41:35;;;;;;;1999.90;999.90;;;12.70;99.90;;;;;;5043114;28;20530;-82
2021/05/22 07:44:01;;;;;;;1999.90;999.90;;;12.80;99.90;;;;;;5040596;28;20177;-81
2021/05/22 07:46:27;;;;;;;1999.90;999.90;;;12.90;99.90;;;;;;5039662;28;20173;-82
2021/05/22 07:48:52;;;;;;;1999.90;999.90;;;12.80;99.90;;;;;;5040057;28;20288;-81
2021/05/22 07:51:18;;;;;;;1999.90;999.90;;;12.70;99.90;;;;;;5039561;28;20173;-81
2021/05/22 07:53:44;;;;;;;1999.90;999.90;;;12.70;99.90;;;;;;5039298;28;20403;-82
2021/05/22 07:56:10;;;;;;;1999.90;999.90;;;12.60;99.90;;;;;;5040722;28;20245;-83
2021/05/22 07:58:36;;;;;;;1999.90;999.90;;;12.60;99.90;;;;;;5040808;28;20514;-83
2021/05/22 08:01:02;;;;;;;1999.90;999.90;;;12.60;99.90;;;;;;5040669;28;20451;-83
2021/05/22 08:03:27;;;;;;;1999.90;999.90;;;12.40;99.90;;;;;;5041259;28;20161;-83
2021/05/22 08:05:53;;;;;;;1999.90;999.90;;;12.40;99.90;;;;;;5042731;28;20536;-82
2021/05/22 08:08:19;;;;;;;1999.90;999.90;;;12.40;99.90;;;;;;5041719;28;20733;-82
2021/05/22 08:10:44;;;;;;;1999.90;999.90;;;12.50;99.90;;;;;;5043087;28;20204;-83
2021/05/22 08:13:10;;;;;;;1999.90;999.90;;;12.40;99.90;;;;;;5042526;28;20188;-82
2021/05/22 08:15:37;;;;;;;1999.90;999.90;;;12.50;99.90;;;;;;5042073;28;20177;-84
2021/05/22 08:18:03;;;;;;;1999.90;999.90;;;12.40;99.90;;;;;;5042571;28;20491;-83
2021/05/22 08:20:30;;;;;;;1999.90;999.90;;;12.30;99.90;;;;;;5042995;28;20168;-83
2021/05/22 08:22:55;;;;;;;1999.90;999.90;;;12.40;99.90;;;;;;5042706;28;20172;-83
2021/05/22 08:25:21;;;;;;;1999.90;999.90;;;12.40;99.90;;;;;;5039749;28;20169;-83
2021/05/22 08:27:49;;;;;;;1999.90;999.90;;;12.30;99.90;;;;;;5041156;28;20541;-83
2021/05/22 08:30:15;;;;;;;1999.90;999.90;;;12.30;99.90;;;;;;5042276;28;20185;-82
2021/05/22 08:32:41;;;;;;;1999.90;999.90;;;12.40;99.90;;;;;;5041301;28;20648;-83
2021/05/22 08:35:08;;;;;;;1999.90;999.90;;;12.40;99.90;;;;;;5042095;28;20185;-82
2021/05/22 08:37:34;;;;;;;1999.90;999.90;;;12.50;99.90;;;;;;5042504;28;20431;-82
2021/05/22 08:40:00;;;;;;;1999.90;999.90;;;12.60;99.90;;;;;;5040882;28;20180;-82
2021/05/22 08:42:27;;;;;;;1999.90;999.90;;;12.80;99.90;;;;;;5040506;28;20189;-82
2021/05/22 08:45:02;;;;;;;1999.90;999.90;;;12.80;99.90;;;;;;5039569;28;20161;-82
2021/05/22 08:47:29;;;;;;;1999.90;999.90;;;12.90;99.90;;;;;;5039705;28;20204;-82
2021/05/22 08:49:55;;;;;;;1999.90;999.90;;;12.90;99.90;;;;;;5038355;28;20708;-82
2021/05/22 08:52:22;;;;;;;1999.90;999.90;;;13.10;99.90;;;;;;5040047;28;20255;-82
2021/05/22 08:54:49;;;;;;;1999.90;999.90;;;13.10;99.90;;;;;;5041825;28;20404;-82
2021/05/22 08:57:16;;;;;;;1999.90;999.90;;;13.10;99.90;;;;;;5042093;28;20158;-82
2021/05/22 08:59:45;;;;;;;1999.90;999.90;;;12.90;99.90;;;;;;5041453;28;20422;-82
2021/05/22 09:02:22;;;;;;;1999.90;999.90;;;12.90;99.90;;;;;;5042485;28;20181;-82
2021/05/22 09:05:16;;;;;;;1999.90;999.90;;;12.90;99.90;;;;;;5039883;28;20168;-83
2021/05/22 09:07:44;;;;;;;1999.90;999.90;;;12.70;99.90;;;;;;5038307;28;20195;-82
2021/05/22 09:10:15;;;;;;;1999.90;999.90;;;12.80;99.90;;;;;;5038935;28;20188;-83
2021/05/22 09:12:45;;;;;;;1999.90;999.90;;;12.70;99.90;;;;;;5040302;28;20675;-82
2021/05/22 09:15:17;;;;;;;1999.90;999.90;;;12.80;99.90;;;;;;5040405;28;20170;-82
2021/05/22 09:17:49;;;;;;;1999.90;999.90;;;12.80;99.90;;;;;;5042910;28;20189;-84
2021/05/22 09:20:18;;;;;;;1999.90;999.90;;;12.80;99.90;;;;;;5040822;28;20169;-82
2021/05/22 09:22:43;;;;;;;1999.90;999.90;;;12.80;99.90;;;;;;5043887;28;20185;-82
2021/05/22 09:25:10;;;;;;;1999.90;999.90;;;12.90;99.90;;;;;;5040308;28;20162;-83
2021/05/22 09:27:40;;;;;;;1999.90;999.90;;;12.80;99.90;;;;;;5041341;28;20223;-82
2021/05/22 09:30:15;;;;;;;1999.90;999.90;;;12.80;99.90;;;;;;5041148;28;20141;-82
2021/05/22 09:32:42;;;;;;;1999.90;999.90;;;13.00;99.90;;;;;;5041741;28;20167;-82
2021/05/22 09:35:09;;;;;;;1999.90;999.90;;;13.10;99.90;;;;;;5042982;28;20177;-82
2021/05/22 09:37:44;;;;;;;1999.90;999.90;;;13.10;99.90;;;;;;5044196;28;20658;-82
2021/05/22 09:40:13;;;;;;;1999.90;999.90;;;13.00;99.90;;;;;;5041777;28;20176;-83
2021/05/22 09:42:40;;;;;;;1999.90;999.90;;;13.10;99.90;;;;;;5041443;28;20177;-82
2021/05/22 09:45:27;;;;;;;1999.90;999.90;;;12.90;99.90;;;;;;5041811;28;20162;-81
2021/05/22 09:47:55;;;;;;;1999.90;999.90;;;12.90;99.90;;;;;;5042717;28;20208;-82
2021/05/22 09:50:29;;;;;;;1999.90;999.90;;;12.90;99.90;;;;;;5040833;28;20204;-82
2021/05/22 09:52:56;;;;;;;1999.90;999.90;;;12.80;99.90;;;;;;5038771;28;20179;-81
2021/05/22 09:55:23;;;;;;;1999.90;999.90;;;12.90;99.90;;;;;;5038370;28;20161;-82
2021/05/22 09:57:50;;;;;;;1999.90;999.90;;;12.90;99.90;;;;;;5039562;28;20181;-82
2021/05/22 10:00:24;;;;;;;1999.90;999.90;;;12.90;99.90;;;;;;5039260;28;20164;-81
2021/05/22 10:03:01;;;;;;;1999.90;999.90;;;13.00;99.90;;;;;;5038580;28;20176;-81
2021/05/22 10:05:35;;;;;;;1999.90;999.90;;;13.00;99.90;;;;;;5037373;28;20153;-81
2021/05/22 10:08:04;;;;;;;1999.90;999.90;;;13.30;99.90;;;;;;5037237;28;20422;-81
2021/05/22 10:10:43;;;;;;;1999.90;999.90;;;13.60;99.90;;;;;;5037649;28;20581;-81
2021/05/22 10:13:09;;;;;;;1999.90;999.90;;;13.70;99.90;;;;;;5036967;28;20628;-82
2021/05/22 10:15:35;;;;;;;1999.90;999.90;;;13.60;99.90;;;;;;5034935;28;20218;-82
2021/05/22 10:18:08;;;;;;;1999.90;999.90;;;13.60;99.90;;;;;;5037666;28;20478;-83
2021/05/22 10:20:33;;;;;;;1999.90;999.90;;;13.60;99.90;;;;;;5037605;28;20463;-83
2021/05/22 10:23:01;;;;;;;1999.90;999.90;;;13.70;99.90;;;;;;5038734;28;20498;-81
2021/05/22 10:25:27;;;;;;;1999.90;999.90;;;13.80;99.90;;;;;;5038068;28;20412;-82
2021/05/22 10:27:53;;;;;;;1999.90;999.90;;;13.80;99.90;;;;;;5037600;28;20481;-82
2021/05/22 10:30:19;;;;;;;1999.90;999.90;;;13.90;99.90;;;;;;5038068;28;20404;-82
2021/05/22 10:32:46;;;;;;;1999.90;999.90;;;13.90;99.90;;;;;;5038505;28;20404;-82
2021/05/22 10:35:15;;;;;;;1999.90;999.90;;;14.00;99.90;;;;;;5035700;28;20899;-82
2021/05/22 10:37:49;;;;;;;1999.90;999.90;;;14.00;99.90;;;;;;5037250;28;20436;-81
2021/05/22 10:40:20;;;;;;;1999.90;999.90;;;13.90;99.90;;;;;;5038169;28;20412;-81
2021/05/22 10:42:55;;;;;;;1999.90;999.90;;;14.00;99.90;;;;;;5037844;28;20431;-81
2021/05/22 10:45:27;;;;;;;1999.90;999.90;;;14.20;99.90;;;;;;5037878;28;20407;-82
2021/05/22 10:47:54;;;;;;;1999.90;999.90;;;14.20;99.90;;;;;;5035477;28;20507;-82
2021/05/22 10:50:44;;;;;;;1999.90;999.90;;;14.10;99.90;;;;;;5036502;28;20404;-82
2021/05/22 10:53:20;;;;;;;1999.90;999.90;;;14.30;99.90;;;;;;5036993;28;20385;-83
2021/05/22 10:56:09;;;;;;;1999.90;999.90;;;14.50;99.90;;;;;;5036618;28;20406;-82
2021/05/22 10:58:37;;;;;;;1999.90;999.90;;;14.50;99.90;;;;;;5035619;28;20424;-82
2021/05/22 11:01:25;;;;;;;1999.90;999.90;;;14.60;99.90;;;;;;5036832;28;20444;-83
2021/05/22 11:04:21;;;;;;;1999.90;999.90;;;14.80;99.90;;;;;;5036703;28;20404;-82
2021/05/22 11:07:01;;;;;;;1999.90;999.90;;;14.90;99.90;;;;;;5036113;28;20475;-83
2021/05/22 11:09:27;;;;;;;1999.90;999.90;;;14.80;99.90;;;;;;5036967;28;20506;-83
2021/05/22 11:12:15;;;;;;;1999.90;999.90;;;14.80;99.90;;;;;;5038658;28;20962;-83
2021/05/22 11:14:47;;;;;;;1999.90;999.90;;;14.70;99.90;;;;;;5035859;28;20756;-83
2021/05/22 11:17:22;;;;;;;1999.90;999.90;;;14.70;99.90;;;;;;5039294;28;20813;-82
2021/05/22 11:20:11;;;;;;;1999.90;999.90;;;14.70;99.90;;;;;;5039240;28;20404;-83
2021/05/22 11:22:37;;;;;;;1999.90;999.90;;;14.60;99.90;;;;;;5040634;28;20475;-83
2021/05/22 11:25:08;;;;;;;1999.90;999.90;;;14.70;99.90;;;;;;5039724;28;20415;-83
2021/05/22 11:27:53;;;;;;;1999.90;999.90;;;14.80;99.90;;;;;;5039128;28;20197;-83
2021/05/22 11:30:43;;;;;;;1999.90;999.90;;;14.80;99.90;;;;;;5039593;28;20471;-82
2021/05/22 11:33:25;;;;;;;1999.90;999.90;;;14.80;99.90;;;;;;5038323;28;20392;-81
2021/05/22 11:36:06;;;;;;;1999.90;999.90;;;14.90;99.90;;;;;;5095344;23;20545;-84
2021/05/22 11:45:13;;;;;;;1999.90;999.90;;;15.10;99.90;;;;;;5017170;28;20490;-84
2021/05/22 11:47:48;;;;;;;1999.90;999.90;;;15.20;99.90;;;;;;5036529;28;20416;-85
2021/05/22 11:51:22;;;;;;;1999.90;999.90;;;15.10;99.90;;;;;;5021715;28;20411;-84
2021/05/22 11:54:18;;;;;;;1999.90;999.90;;;15.10;99.90;;;;;;4960475;28;20462;-84
2021/05/22 11:57:27;;;;;;;1999.90;999.90;;;15.00;99.90;;;;;;4922414;29;20420;-85
2021/05/22 12:00:35;;;;;;;1999.90;999.90;;;14.90;99.90;;;;;;4960941;28;20450;-86
2021/05/22 12:04:08;;;;;;;1999.90;999.90;;;14.80;99.90;;;;;;5029406;28;20423;-83
2021/05/22 12:09:45;;;;;;;1999.90;999.90;;;14.60;99.90;;;;;;5072326;23;20506;-85
2021/05/22 12:19:16;;;;;;;1999.90;999.90;;;14.60;99.90;;;;;;5035320;28;20511;-83
2021/05/22 12:25:38;;;;;;;1999.90;999.90;;;14.60;99.90;;;;;;5036973;28;20408;-84
2021/05/22 12:28:10;;;;;;;1999.90;999.90;;;14.50;99.90;;;;;;5014553;28;20439;-84
2021/05/22 12:31:20;;;;;;;1999.90;999.90;;;14.50;99.90;;;;;;5018329;28;20424;-83
2021/05/22 12:38:27;;;;;;;1999.90;999.90;;;14.70;99.90;;;;;;4985142;22;21553;-84
2021/05/22 12:41:21;;;;;;;1999.90;999.90;;;14.80;99.90;;;;;;4975948;28;20454;-85
2021/05/22 12:50:37;;;;;;;1999.90;999.90;;;14.70;99.90;;;;;;4943228;29;20411;-85